createdAt,value
2023-01-23T00:02:45.982Z,19.40
2023-01-23T00:06:00.044Z,18.38
2023-01-23T00:09:03.614Z,18.95
2023-01-23T00:12:05.358Z,19.02
2023-01-23T00:15:10.719Z,18.70
2023-01-23T00:18:12.355Z,17.02
2023-01-23T00:21:18.206Z,14.43
2023-01-23T00:27:23.045Z,19.02
2023-01-23T00:30:24.551Z,21.50
2023-01-23T00:33:28.082Z,14.80
2023-01-23T00:36:32.611Z,16.80
2023-01-23T00:39:36.224Z,18.67
2023-01-23T00:42:37.708Z,22.38
2023-01-23T00:45:41.223Z,19.48
2023-01-23T00:48:42.975Z,18.45
2023-01-23T00:54:47.852Z,19.38
2023-01-23T00:57:51.314Z,15.80
2023-01-23T01:00:52.937Z,21.80
2023-01-23T01:03:57.211Z,15.75
2023-01-23T01:06:58.691Z,18.60
2023-01-23T01:10:02.715Z,20.27
2023-01-23T01:13:04.283Z,23.02
2023-01-23T01:16:08.369Z,19.83
2023-01-23T01:19:11.952Z,17.52
2023-01-23T01:22:15.643Z,17.88
2023-01-23T01:25:17.443Z,16.85
2023-01-23T01:31:22.987Z,17.00
2023-01-23T01:34:26.534Z,16.55
2023-01-23T01:37:28.006Z,21.60
2023-01-23T01:40:34.244Z,16.60
2023-01-23T01:43:36.138Z,19.40
2023-01-23T01:46:40.313Z,18.73
2023-01-23T01:49:42.026Z,19.17
2023-01-23T01:52:45.937Z,19.38
2023-01-23T01:55:48.796Z,29.20
2023-01-23T01:58:53.456Z,21.92
2023-01-23T02:02:04.628Z,21.80
2023-01-23T02:05:16.455Z,39.38
2023-01-23T02:08:42.368Z,28.27
2023-01-23T02:11:45.887Z,18.63
2023-01-23T02:14:47.446Z,18.48
2023-01-23T02:17:52.487Z,23.02
2023-01-23T02:20:57.135Z,19.98
2023-01-23T02:24:16.505Z,15.00
2023-01-23T02:27:17.955Z,17.90
2023-01-23T02:30:22.203Z,17.55
2023-01-23T02:33:25.815Z,22.50
2023-01-23T02:39:36.493Z,17.73
2023-01-23T02:42:44.233Z,18.58
2023-01-23T02:45:48.377Z,16.13
2023-01-23T02:48:53.084Z,21.13
2023-01-23T02:51:56.338Z,18.67
2023-01-23T02:55:00.436Z,18.67
2023-01-23T02:58:20.481Z,16.65
2023-01-23T03:01:25.113Z,15.65
2023-01-23T03:04:27.549Z,24.40
2023-01-23T03:07:31.068Z,22.15
2023-01-23T03:10:32.569Z,16.45
2023-01-23T03:13:36.108Z,18.98
2023-01-23T03:22:46.300Z,15.25
2023-01-23T03:25:57.830Z,16.20
2023-01-23T03:29:21.310Z,15.93
2023-01-23T03:32:25.535Z,17.73
2023-01-23T03:38:32.337Z,19.52
2023-01-23T03:41:33.883Z,17.38
2023-01-23T03:44:40.388Z,18.58
2023-01-23T03:47:41.873Z,16.35
2023-01-23T03:50:45.518Z,19.90
2023-01-23T03:53:47.306Z,20.08
2023-01-23T03:56:51.508Z,21.48
2023-01-23T04:00:13.545Z,23.85
2023-01-23T04:03:39.952Z,19.63
2023-01-23T04:06:42.386Z,22.80
2023-01-23T04:09:47.251Z,13.23
2023-01-23T04:12:48.721Z,17.80
2023-01-23T04:15:52.309Z,16.23
2023-01-23T04:18:54.415Z,16.92
2023-01-23T04:21:59.101Z,17.55
2023-01-23T04:25:00.779Z,20.17
2023-01-23T04:28:04.444Z,19.20
2023-01-23T04:31:06.255Z,15.05
2023-01-23T04:34:11.340Z,19.45
2023-01-23T04:37:14.127Z,21.08
2023-01-23T04:40:18.161Z,19.27
2023-01-23T04:43:29.927Z,19.48
2023-01-23T04:46:33.639Z,16.23
2023-01-23T04:49:42.787Z,18.95
2023-01-23T04:52:46.817Z,13.80
2023-01-23T04:55:49.152Z,17.58
2023-01-23T04:58:53.821Z,17.08
2023-01-23T05:01:57.163Z,17.17
2023-01-23T05:05:01.696Z,15.70
2023-01-23T05:08:03.560Z,21.77
2023-01-23T05:11:07.245Z,18.67
2023-01-23T05:14:08.815Z,19.20
2023-01-23T05:17:12.341Z,20.35
2023-01-23T05:20:22.979Z,29.88
2023-01-23T05:23:26.543Z,20.25
2023-01-23T05:26:29.142Z,18.20
2023-01-23T05:29:33.185Z,26.63
2023-01-23T05:32:43.304Z,21.30
2023-01-23T05:36:01.530Z,20.63
2023-01-23T05:39:03.404Z,21.70
2023-01-23T05:42:07.158Z,27.13
2023-01-23T05:45:26.138Z,20.85
2023-01-23T05:51:33.200Z,22.75
2023-01-23T05:54:37.365Z,20.38
2023-01-23T05:57:38.966Z,21.02
2023-01-23T06:01:14.578Z,24.33
2023-01-23T06:04:34.690Z,20.15
2023-01-23T06:07:48.185Z,20.02
2023-01-23T06:10:50.356Z,25.35
2023-01-23T06:13:55.227Z,21.45
2023-01-23T06:16:57.250Z,19.13
2023-01-23T06:20:00.770Z,23.20
2023-01-23T06:23:02.751Z,20.95
2023-01-23T06:26:06.288Z,28.25
2023-01-23T06:29:08.967Z,24.08
2023-01-23T06:35:14.970Z,25.00
2023-01-23T06:38:19.675Z,32.88
2023-01-23T06:41:23.929Z,55.92
2023-01-23T06:44:29.644Z,34.10
2023-01-23T06:47:31.678Z,24.67
2023-01-23T06:50:38.338Z,22.92
2023-01-23T06:53:39.970Z,37.20
2023-01-23T06:56:43.585Z,29.27
2023-01-23T06:59:46.386Z,23.75
2023-01-23T07:02:52.522Z,22.88
2023-01-23T07:05:54.061Z,25.02
2023-01-23T07:08:57.539Z,24.75
2023-01-23T07:11:59.577Z,25.85
2023-01-23T07:15:06.592Z,24.40
2023-01-23T07:18:12.861Z,28.80
2023-01-23T07:21:16.410Z,27.45
2023-01-23T07:24:17.874Z,24.33
2023-01-23T07:27:21.452Z,30.88
2023-01-23T07:30:23.432Z,24.55
2023-01-23T07:33:27.821Z,31.98
2023-01-23T07:36:29.641Z,27.77
2023-01-23T07:42:34.621Z,27.17
2023-01-23T07:45:38.387Z,22.52
2023-01-23T07:48:39.883Z,26.30
2023-01-23T07:51:43.600Z,39.50
2023-01-23T07:54:45.087Z,37.85
2023-01-23T07:57:48.843Z,32.78
2023-01-23T08:00:50.389Z,31.98
2023-01-23T08:03:54.257Z,27.70
2023-01-23T08:06:55.703Z,33.00
2023-01-23T08:09:59.173Z,30.23
2023-01-23T08:13:00.639Z,31.85
2023-01-23T08:16:05.404Z,38.80
2023-01-23T08:19:07.798Z,23.50
2023-01-23T08:22:11.299Z,37.25
2023-01-23T08:25:12.793Z,32.58
2023-01-23T08:28:16.304Z,34.00
2023-01-23T08:31:18.177Z,32.60
2023-01-23T08:34:23.487Z,29.30
2023-01-23T08:37:25.082Z,23.10
2023-01-23T08:40:28.752Z,28.80
2023-01-23T08:43:30.714Z,26.33
2023-01-23T08:46:34.199Z,31.65
2023-01-23T08:49:36.064Z,27.20
2023-01-23T08:52:39.659Z,26.50
2023-01-23T08:55:41.293Z,36.22
2023-01-23T08:58:45.639Z,26.10
2023-01-23T09:01:47.467Z,22.77
2023-01-23T09:07:52.394Z,27.40
2023-01-23T09:11:00.821Z,34.95
2023-01-23T09:14:02.354Z,26.35
2023-01-23T09:17:06.015Z,30.90
2023-01-23T09:20:08.743Z,26.45
2023-01-23T09:23:12.267Z,26.23
2023-01-23T09:26:14.655Z,26.58
2023-01-23T09:29:18.165Z,22.83
2023-01-23T09:32:19.614Z,25.98
2023-01-23T09:35:23.232Z,30.33
2023-01-23T09:38:24.896Z,24.60
2023-01-23T09:44:41.674Z,24.75
2023-01-23T09:47:49.066Z,25.67
2023-01-23T09:50:58.926Z,19.70
2023-01-23T09:54:15.617Z,25.48
2023-01-23T09:57:22.240Z,22.98
2023-01-23T10:00:35.890Z,24.17
2023-01-23T10:03:37.663Z,21.33
2023-01-23T10:10:36.440Z,19.25
2023-01-23T10:13:58.851Z,22.85
2023-01-23T10:17:28.598Z,19.10
2023-01-23T10:20:44.568Z,20.23
2023-01-23T10:24:19.412Z,26.90
2023-01-23T10:27:44.608Z,18.50
2023-01-23T10:30:53.965Z,22.23
2023-01-23T10:34:09.369Z,24.25
2023-01-23T10:37:21.604Z,25.17
2023-01-23T10:40:45.783Z,22.40
2023-01-23T10:43:50.579Z,20.90
2023-01-23T10:46:59.385Z,19.10
2023-01-23T10:50:01.885Z,27.83
2023-01-23T10:53:07.882Z,36.78
2023-01-23T10:56:16.290Z,26.95
2023-01-23T10:59:50.575Z,23.90
2023-01-23T11:02:52.470Z,20.98
2023-01-23T11:06:05.233Z,22.65
2023-01-23T11:09:19.340Z,20.27
2023-01-23T11:12:31.880Z,22.75
2023-01-23T11:15:38.066Z,27.10
2023-01-23T11:18:52.606Z,23.63
2023-01-23T11:22:00.179Z,21.58
2023-01-23T11:25:27.845Z,29.38
2023-01-23T11:28:34.499Z,24.77
2023-01-23T11:31:41.305Z,25.00
2023-01-23T11:34:50.171Z,22.60
2023-01-23T11:37:56.402Z,19.17
2023-01-23T11:40:58.360Z,26.73
2023-01-23T11:44:08.048Z,21.50
2023-01-23T11:47:43.269Z,21.08
2023-01-23T11:50:55.789Z,22.83
2023-01-23T11:54:12.493Z,21.55
2023-01-23T11:57:46.044Z,23.98
2023-01-23T12:01:19.939Z,21.40
2023-01-23T12:04:43.399Z,23.50
2023-01-23T12:07:53.497Z,24.45
2023-01-23T12:11:19.630Z,22.00
2023-01-23T12:14:34.106Z,18.05
2023-01-23T12:17:56.492Z,21.58
2023-01-23T12:21:10.680Z,18.67
2023-01-23T12:24:31.579Z,20.23
2023-01-23T12:27:40.151Z,16.27
2023-01-23T12:31:05.656Z,17.52
2023-01-23T12:34:42.020Z,20.67
2023-01-23T12:38:21.465Z,13.93
2023-01-23T12:41:41.235Z,17.85
2023-01-23T12:45:14.470Z,15.98
2023-01-23T12:48:23.774Z,17.15
2023-01-23T12:51:36.356Z,14.15
2023-01-23T12:54:42.953Z,17.40
2023-01-23T12:57:59.489Z,16.00
2023-01-23T13:01:23.715Z,18.48
2023-01-23T13:04:49.032Z,20.52
2023-01-23T13:08:25.247Z,15.55
2023-01-23T13:11:42.675Z,19.02
2023-01-23T13:15:06.975Z,16.98
2023-01-23T13:21:48.896Z,16.80
2023-01-23T13:25:16.939Z,19.52
2023-01-23T13:28:45.895Z,16.70
2023-01-23T13:31:52.021Z,23.80
2023-01-23T13:34:53.672Z,19.48
2023-01-23T13:37:58.750Z,17.90
2023-01-23T13:41:03.799Z,20.80
2023-01-23T13:44:21.329Z,20.17
2023-01-23T14:23:34.245Z,17.05
2023-01-23T14:26:49.607Z,20.70
2023-01-23T14:30:02.906Z,20.52
2023-01-23T14:33:17.301Z,22.42
2023-01-23T14:36:19.387Z,23.23
2023-01-23T14:39:27.255Z,23.15
2023-01-23T14:42:30.079Z,21.88
2023-01-23T14:45:35.159Z,20.70
2023-01-23T14:48:40.485Z,25.10
2023-01-23T14:51:55.614Z,22.63
2023-01-23T14:55:01.184Z,21.52
2023-01-23T14:58:21.840Z,20.35
2023-01-23T15:01:24.146Z,29.80
2023-01-23T15:04:29.121Z,24.48
2023-01-23T15:07:30.636Z,23.83
2023-01-23T15:10:43.171Z,20.90
2023-01-23T15:13:50.159Z,27.10
2023-01-23T15:17:18.335Z,28.52
2023-01-23T15:20:37.618Z,21.77
2023-01-23T15:23:59.612Z,18.65
2023-01-23T15:27:02.970Z,24.38
2023-01-23T15:30:39.505Z,21.00
2023-01-23T15:40:18.953Z,21.77
2023-01-23T15:43:22.499Z,16.95
2023-01-23T15:46:24.054Z,19.58
2023-01-23T15:49:28.678Z,24.05
2023-01-23T15:52:47.509Z,20.80
2023-01-23T15:55:51.098Z,25.80
2023-01-23T15:58:52.767Z,21.88
2023-01-23T16:01:56.247Z,20.92
2023-01-23T16:04:58.119Z,22.58
2023-01-23T16:11:04.354Z,21.80
2023-01-23T16:14:15.359Z,21.52
2023-01-23T16:17:17.434Z,23.27
2023-01-23T16:20:26.116Z,24.55
2023-01-23T16:23:31.230Z,19.45
2023-01-23T16:26:39.668Z,20.30
2023-01-23T16:29:43.424Z,22.92
2023-01-23T16:32:47.425Z,19.48
2023-01-23T16:35:50.218Z,21.60
2023-01-23T16:38:57.526Z,20.88
2023-01-23T16:41:59.387Z,24.48
